Time;durP1;ratioP1;P1;durP2;ratioP2;P2;SDS_P1;SDS_P2;PMS_P1;PMS_P2;Temp;Humidity;BMP_temperature;BMP_pressure;BME280_temperature;BME280_humidity;BME280_pressure;Samples;Min_cycle;Max_cycle;Signal;HPM_P1;HPM_P2
2022/02/25 00:01:24;;;;;;;2.03;1.92;;;2.00;99.90;;;;;;492732;241;28045;-76
2022/02/25 00:03:25;;;;;;;2.30;2.10;;;1.90;99.90;;;;;;492701;241;27900;-75
2022/02/25 00:05:27;;;;;;;3.53;1.70;;;1.80;99.90;;;;;;492694;241;27966;-75
2022/02/25 00:07:28;;;;;;;1.80;1.70;;;1.80;99.90;;;;;;492748;241;27522;-75
2022/02/25 00:09:29;;;;;;;3.72;2.00;;;1.80;99.90;;;;;;492742;241;27434;-75
2022/02/25 00:11:30;;;;;;;2.60;1.95;;;1.80;99.90;;;;;;492757;241;27480;-75
2022/02/25 00:13:32;;;;;;;2.97;2.10;;;1.80;99.90;;;;;;492767;241;27438;-75
2022/02/25 00:15:33;;;;;;;2.20;2.10;;;1.80;99.90;;;;;;492746;241;27483;-75
2022/02/25 00:17:34;;;;;;;3.95;2.37;;;1.80;99.90;;;;;;492744;241;27516;-75
2022/02/25 00:19:35;;;;;;;2.40;1.98;;;1.70;99.90;;;;;;492747;241;27492;-75
2022/02/25 00:21:37;;;;;;;2.17;1.90;;;1.70;99.90;;;;;;492664;241;27481;-76
2022/02/25 00:23:38;;;;;;;2.00;1.90;;;1.70;99.90;;;;;;492746;241;27423;-75
2022/02/25 00:25:41;;;;;;;2.72;1.60;;;1.70;99.90;;;;;;492771;241;27561;-76
2022/02/25 00:27:40;;;;;;;1.90;1.80;;;1.70;99.90;;;;;;492642;241;27989;-76
2022/02/25 00:29:42;;;;;;;2.20;2.00;;;1.70;99.90;;;;;;492734;241;27919;-76
2022/02/25 00:31:43;;;;;;;2.87;1.80;;;1.60;99.90;;;;;;492757;241;27963;-75
2022/02/25 00:33:44;;;;;;;5.40;2.35;;;1.60;99.90;;;;;;492746;241;27881;-76
2022/02/25 00:35:45;;;;;;;3.60;1.85;;;1.50;99.90;;;;;;492745;241;27571;-76
2022/02/25 00:37:47;;;;;;;1.87;1.77;;;1.50;99.90;;;;;;492735;241;27482;-76
2022/02/25 00:39:48;;;;;;;2.15;2.05;;;1.50;99.90;;;;;;492758;241;27458;-76
2022/02/25 00:41:49;;;;;;;3.00;2.22;;;1.50;99.90;;;;;;492751;241;27570;-76
2022/02/25 00:43:50;;;;;;;2.10;1.90;;;1.50;99.90;;;;;;492773;241;27472;-75
2022/02/25 00:45:52;;;;;;;2.25;2.05;;;1.50;99.90;;;;;;492782;241;27566;-76
2022/02/25 00:47:53;;;;;;;1.55;1.45;;;1.50;99.90;;;;;;492792;241;27504;-75
2022/02/25 00:49:54;;;;;;;2.15;1.73;;;1.40;99.90;;;;;;492747;241;27495;-75
2022/02/25 00:51:55;;;;;;;1.80;1.70;;;1.40;99.90;;;;;;492765;241;27551;-76
2022/02/25 00:53:57;;;;;;;2.25;2.15;;;1.40;99.90;;;;;;492770;241;27548;-75
2022/02/25 00:55:58;;;;;;;2.00;1.90;;;1.40;99.90;;;;;;492764;241;28012;-76
2022/02/25 00:58:00;;;;;;;5.07;2.00;;;1.40;99.90;;;;;;492769;241;28025;-76
2022/02/25 01:00:02;;;;;;;2.35;2.15;;;1.30;99.90;;;;;;492573;241;27592;-76
2022/02/25 01:02:03;;;;;;;1.90;1.80;;;1.30;99.90;;;;;;492737;241;27468;-75
2022/02/25 01:04:04;;;;;;;2.10;2.00;;;1.30;99.90;;;;;;492772;241;27551;-75
2022/02/25 01:06:06;;;;;;;3.58;2.08;;;1.30;99.90;;;;;;492761;241;27533;-75
2022/02/25 01:08:07;;;;;;;1.87;1.77;;;1.20;99.90;;;;;;492751;241;27451;-76
2022/02/25 01:10:08;;;;;;;4.53;1.85;;;1.20;99.90;;;;;;492727;241;27526;-76
2022/02/25 01:12:10;;;;;;;2.12;1.92;;;1.20;99.90;;;;;;492770;241;27551;-75
2022/02/25 01:14:10;;;;;;;3.40;1.60;;;1.20;99.90;;;;;;492757;241;27908;-75
2022/02/25 01:16:12;;;;;;;1.98;1.87;;;1.20;99.90;;;;;;492797;241;27961;-76
2022/02/25 01:18:13;;;;;;;2.00;1.73;;;1.20;99.90;;;;;;492766;241;27905;-76
2022/02/25 01:20:15;;;;;;;2.42;1.65;;;1.20;99.90;;;;;;492754;241;28014;-75
2022/02/25 01:22:15;;;;;;;1.77;1.67;;;1.20;99.90;;;;;;492706;241;27495;-76
2022/02/25 01:24:17;;;;;;;3.75;1.92;;;1.20;99.90;;;;;;492759;241;27463;-76
2022/02/25 01:26:18;;;;;;;2.97;2.00;;;1.20;99.90;;;;;;492782;241;27483;-76
2022/02/25 01:28:21;;;;;;;2.35;2.15;;;1.20;99.90;;;;;;492786;241;27447;-76
2022/02/25 01:30:20;;;;;;;1.60;1.50;;;1.20;99.90;;;;;;492642;241;27483;-75
2022/02/25 01:32:22;;;;;;;2.80;2.25;;;1.20;99.90;;;;;;492781;241;27943;-76
2022/02/25 01:34:23;;;;;;;1.67;1.58;;;1.10;99.90;;;;;;492761;241;27452;-76
2022/02/25 01:36:24;;;;;;;1.83;1.73;;;1.10;99.90;;;;;;492755;241;27476;-75
2022/02/25 01:38:25;;;;;;;1.98;1.87;;;1.20;99.90;;;;;;492750;241;27670;-76
2022/02/25 01:40:27;;;;;;;1.98;1.70;;;1.30;99.90;;;;;;492706;241;27963;-76
2022/02/25 01:42:28;;;;;;;2.58;1.85;;;1.40;99.90;;;;;;492732;241;28002;-76
2022/02/25 01:44:32;;;;;;;1.87;1.70;;;1.40;99.90;;;;;;492724;241;27922;-76
2022/02/25 01:46:30;;;;;;;1.83;1.65;;;1.40;99.90;;;;;;492394;241;27938;-76
2022/02/25 01:48:32;;;;;;;1.87;1.77;;;1.50;99.90;;;;;;492744;241;27447;-76
2022/02/25 01:50:35;;;;;;;1.55;1.50;;;1.60;99.90;;;;;;492738;241;27488;-75
2022/02/25 01:52:34;;;;;;;1.90;1.80;;;1.60;99.90;;;;;;492615;241;27495;-75
2022/02/25 01:54:35;;;;;;;2.47;1.65;;;1.60;99.90;;;;;;492766;241;27586;-76
2022/02/25 01:56:37;;;;;;;1.98;1.87;;;1.60;99.90;;;;;;492738;241;27463;-75
2022/02/25 01:58:38;;;;;;;4.07;1.80;;;1.60;99.90;;;;;;492754;241;27543;-75
2022/02/25 02:00:39;;;;;;;2.05;1.60;;;1.60;99.90;;;;;;492758;241;27458;-76
2022/02/25 02:02:40;;;;;;;3.28;1.60;;;1.50;99.90;;;;;;492738;241;27480;-76
2022/02/25 02:04:42;;;;;;;1.60;1.50;;;1.40;99.90;;;;;;492741;241;27437;-76
2022/02/25 02:06:43;;;;;;;5.93;1.83;;;1.30;99.90;;;;;;492752;241;27479;-76
2022/02/25 02:08:44;;;;;;;2.10;1.90;;;1.30;99.90;;;;;;492707;241;28449;-76
2022/02/25 02:10:45;;;;;;;3.15;1.40;;;1.20;99.90;;;;;;492747;241;27978;-76
2022/02/25 02:12:47;;;;;;;2.67;1.60;;;1.20;99.90;;;;;;492763;241;27988;-76
2022/02/25 02:14:48;;;;;;;3.75;1.92;;;1.10;99.90;;;;;;492738;241;27989;-76
2022/02/25 02:16:49;;;;;;;5.30;1.75;;;1.10;99.90;;;;;;483104;235;27537;-76
2022/02/25 02:18:50;;;;;;;1.83;1.70;;;1.10;99.90;;;;;;483765;245;27420;-75
2022/02/25 02:20:52;;;;;;;1.60;1.50;;;1.10;99.90;;;;;;483783;245;27472;-76
2022/02/25 02:22:53;;;;;;;2.72;1.60;;;1.10;99.90;;;;;;483777;245;27499;-76
2022/02/25 02:24:54;;;;;;;3.53;1.90;;;1.10;99.90;;;;;;483788;245;27512;-76
2022/02/25 02:26:56;;;;;;;3.62;1.70;;;1.20;99.90;;;;;;483800;245;27471;-76
2022/02/25 02:28:57;;;;;;;1.95;1.85;;;1.20;99.90;;;;;;483776;245;27508;-76
2022/02/25 02:30:58;;;;;;;1.60;1.50;;;1.20;99.90;;;;;;483804;245;27538;-76
2022/02/25 02:32:59;;;;;;;6.75;1.77;;;1.20;99.90;;;;;;483765;245;27555;-76
2022/02/25 02:35:00;;;;;;;4.40;1.90;;;1.20;99.90;;;;;;483793;245;27476;-76
2022/02/25 02:37:02;;;;;;;3.67;2.10;;;1.20;99.90;;;;;;483783;245;27984;-76
2022/02/25 02:39:03;;;;;;;1.73;1.62;;;1.20;99.90;;;;;;483785;245;27954;-76
2022/02/25 02:41:04;;;;;;;3.42;2.10;;;1.10;99.90;;;;;;483796;245;27862;-75
2022/02/25 02:43:07;;;;;;;2.05;1.83;;;1.10;99.90;;;;;;483789;245;27939;-76
2022/02/25 02:45:07;;;;;;;5.80;1.90;;;1.10;99.90;;;;;;483778;245;27468;-76
2022/02/25 02:47:08;;;;;;;6.37;2.10;;;1.10;99.90;;;;;;483802;245;27429;-74
2022/02/25 02:49:09;;;;;;;2.35;1.98;;;1.10;99.90;;;;;;483812;245;27511;-75
2022/02/25 02:51:10;;;;;;;4.68;3.40;;;1.00;99.90;;;;;;483820;245;27392;-76
2022/02/25 02:53:12;;;;;;;2.58;1.98;;;1.00;99.90;;;;;;483825;245;27429;-76
2022/02/25 02:55:13;;;;;;;1.90;1.80;;;1.00;99.90;;;;;;483795;245;27479;-76
2022/02/25 02:57:14;;;;;;;5.03;2.00;;;1.00;99.90;;;;;;483789;245;27528;-75
2022/02/25 02:59:15;;;;;;;2.33;2.03;;;1.00;99.90;;;;;;483827;244;27440;-76
2022/02/25 03:01:17;;;;;;;2.62;1.90;;;1.00;99.90;;;;;;483807;245;27404;-75
2022/02/25 03:03:18;;;;;;;1.80;1.70;;;1.00;99.90;;;;;;483773;245;27444;-75
2022/02/25 03:05:19;;;;;;;2.85;1.92;;;1.00;99.90;;;;;;485130;234;27758;-75
2022/02/25 03:07:20;;;;;;;3.45;2.03;;;0.90;99.90;;;;;;479387;246;27938;-76
2022/02/25 03:09:22;;;;;;;2.08;1.85;;;1.00;99.90;;;;;;479430;248;27977;-75
2022/02/25 03:11:23;;;;;;;2.97;2.10;;;0.90;99.90;;;;;;479423;248;27858;-76
2022/02/25 03:13:24;;;;;;;2.62;1.90;;;0.90;99.90;;;;;;479423;248;27515;-75
2022/02/25 03:15:25;;;;;;;1.83;1.73;;;0.80;99.90;;;;;;479421;248;27403;-76
2022/02/25 03:17:27;;;;;;;3.45;1.90;;;0.80;99.90;;;;;;479416;248;27452;-76
2022/02/25 03:19:28;;;;;;;1.65;1.45;;;0.90;99.90;;;;;;479414;248;27448;-75
2022/02/25 03:21:29;;;;;;;1.95;1.60;;;0.90;99.90;;;;;;479443;248;27463;-75
2022/02/25 03:23:30;;;;;;;5.03;2.20;;;0.90;99.90;;;;;;479442;248;27456;-75
2022/02/25 03:25:32;;;;;;;2.30;1.70;;;0.90;99.90;;;;;;479424;248;27428;-75
2022/02/25 03:27:33;;;;;;;2.08;1.62;;;0.90;99.90;;;;;;479450;248;27500;-75
2022/02/25 03:29:34;;;;;;;3.55;1.65;;;0.90;99.90;;;;;;479453;244;27468;-76
2022/02/25 03:31:35;;;;;;;1.48;1.37;;;0.90;99.90;;;;;;479445;248;27404;-76
2022/02/25 03:33:37;;;;;;;1.60;1.50;;;1.00;99.90;;;;;;479413;248;28014;-76
2022/02/25 03:35:38;;;;;;;2.50;1.75;;;1.10;99.90;;;;;;476812;241;28750;-75
2022/02/25 03:37:39;;;;;;;1.85;1.60;;;1.20;99.90;;;;;;471153;252;28094;-76
2022/02/25 03:39:40;;;;;;;2.15;1.95;;;1.20;99.90;;;;;;471190;252;28046;-76
2022/02/25 03:41:42;;;;;;;1.95;1.55;;;1.20;99.90;;;;;;471182;252;27500;-76
2022/02/25 03:43:43;;;;;;;1.98;1.80;;;1.30;99.90;;;;;;471169;252;27570;-75
2022/02/25 03:45:44;;;;;;;2.97;1.90;;;1.30;99.90;;;;;;471165;252;27558;-75
2022/02/25 03:47:45;;;;;;;4.75;1.75;;;1.30;99.90;;;;;;471175;252;27613;-76
2022/02/25 03:49:47;;;;;;;2.35;1.83;;;1.40;99.90;;;;;;471188;252;27576;-77
2022/02/25 03:51:48;;;;;;;7.32;2.20;;;1.40;99.90;;;;;;471178;252;27646;-76
2022/02/25 03:53:49;;;;;;;8.38;2.67;;;1.40;99.90;;;;;;471176;252;27667;-76
2022/02/25 03:55:50;;;;;;;2.78;2.00;;;1.50;99.90;;;;;;471185;252;27541;-75
2022/02/25 03:57:52;;;;;;;8.48;2.45;;;1.40;99.90;;;;;;471170;251;27606;-76
2022/02/25 03:59:53;;;;;;;5.03;2.05;;;1.50;99.90;;;;;;471193;252;27546;-76
2022/02/25 04:01:54;;;;;;;5.10;2.30;;;1.40;99.90;;;;;;471175;252;28025;-76
2022/02/25 04:03:55;;;;;;;4.12;2.15;;;1.40;99.90;;;;;;471179;252;28017;-75
2022/02/25 04:05:57;;;;;;;2.90;2.20;;;1.40;99.90;;;;;;471186;252;28786;-75
2022/02/25 04:07:58;;;;;;;3.25;2.00;;;1.30;99.90;;;;;;471182;252;28094;-76
2022/02/25 04:09:59;;;;;;;4.00;1.85;;;1.30;99.90;;;;;;471169;252;27621;-76
2022/02/25 04:12:02;;;;;;;5.20;2.58;;;1.40;99.90;;;;;;471167;252;27508;-76
2022/02/25 04:14:02;;;;;;;3.35;1.70;;;1.40;99.90;;;;;;471112;252;27533;-75
2022/02/25 04:16:03;;;;;;;4.35;2.00;;;1.40;99.90;;;;;;471195;252;27512;-76
2022/02/25 04:18:04;;;;;;;2.55;1.48;;;1.40;99.90;;;;;;471194;252;27540;-76
2022/02/25 04:20:06;;;;;;;3.65;2.08;;;1.40;99.90;;;;;;471216;252;27639;-76
2022/02/25 04:22:07;;;;;;;5.15;2.05;;;1.30;99.90;;;;;;471198;252;27518;-76
2022/02/25 04:24:08;;;;;;;6.53;1.70;;;1.40;99.90;;;;;;471189;252;27550;-76
2022/02/25 04:26:09;;;;;;;4.65;1.92;;;1.30;99.90;;;;;;471190;252;27528;-75
2022/02/25 04:28:10;;;;;;;3.42;1.92;;;1.30;99.90;;;;;;471145;251;27585;-76
2022/02/25 04:30:12;;;;;;;6.62;1.90;;;1.30;99.90;;;;;;471176;252;28018;-76
2022/02/25 04:32:13;;;;;;;6.15;1.80;;;1.30;99.90;;;;;;471181;252;27971;-76
2022/02/25 04:34:14;;;;;;;9.93;2.37;;;1.30;99.90;;;;;;471173;252;28003;-76
2022/02/25 04:36:15;;;;;;;1.87;1.75;;;1.30;99.90;;;;;;472061;244;27974;-75
2022/02/25 04:38:17;;;;;;;6.12;2.15;;;1.20;99.90;;;;;;483500;244;27540;-76
2022/02/25 04:40:18;;;;;;;6.78;2.22;;;1.10;99.90;;;;;;483470;246;27433;-75
2022/02/25 04:42:19;;;;;;;4.60;2.30;;;1.00;99.90;;;;;;483497;246;27389;-76
2022/02/25 04:44:22;;;;;;;8.75;2.60;;;0.90;99.90;;;;;;483455;246;27433;-75
2022/02/25 04:46:22;;;;;;;2.00;1.90;;;0.90;99.90;;;;;;483411;246;27393;-75
2022/02/25 04:48:23;;;;;;;5.68;2.20;;;0.90;99.90;;;;;;483479;245;27444;-76
2022/02/25 04:50:24;;;;;;;4.53;1.90;;;0.90;99.90;;;;;;483499;246;27416;-76
2022/02/25 04:52:25;;;;;;;4.53;2.28;;;0.80;99.90;;;;;;483464;246;27458;-75
2022/02/25 04:54:27;;;;;;;4.65;2.15;;;0.90;99.90;;;;;;473869;249;27522;-76
2022/02/25 04:56:28;;;;;;;4.47;2.20;;;1.00;99.90;;;;;;483485;246;27448;-76
2022/02/25 04:58:30;;;;;;;2.53;2.22;;;1.00;99.90;;;;;;483462;246;27888;-76
2022/02/25 05:00:30;;;;;;;4.05;2.25;;;1.10;99.90;;;;;;483378;246;27965;-76
2022/02/25 05:02:32;;;;;;;7.20;2.55;;;1.10;99.90;;;;;;483476;246;27951;-76
2022/02/25 05:04:33;;;;;;;3.08;2.05;;;1.20;99.90;;;;;;483462;246;27907;-75
2022/02/25 05:06:34;;;;;;;5.97;2.00;;;1.20;99.90;;;;;;483498;246;27497;-75
2022/02/25 05:08:35;;;;;;;4.43;2.25;;;1.20;99.90;;;;;;483442;246;27428;-75
2022/02/25 05:10:37;;;;;;;3.45;2.10;;;1.20;99.90;;;;;;483464;246;27417;-76
2022/02/25 05:12:38;;;;;;;2.65;1.85;;;1.20;99.90;;;;;;483474;246;27449;-76
2022/02/25 05:21:38;;;;;;;3.05;1.77;;;1.30;99.90;;;;;;483476;246;27431;-76
2022/02/25 05:23:40;;;;;;;2.95;2.10;;;1.30;99.90;;;;;;483461;246;27521;-76
2022/02/25 05:25:41;;;;;;;3.37;2.03;;;1.30;99.90;;;;;;473902;249;28426;-76
2022/02/25 05:27:42;;;;;;;3.85;2.00;;;1.40;99.90;;;;;;483463;246;28080;-76
2022/02/25 05:29:43;;;;;;;2.80;1.90;;;1.30;99.90;;;;;;483336;246;27928;-76
2022/02/25 05:31:45;;;;;;;4.35;2.17;;;1.30;99.90;;;;;;483445;245;27855;-75
2022/02/25 05:33:47;;;;;;;3.05;2.58;;;1.40;99.90;;;;;;483450;246;27499;-76
2022/02/25 05:35:47;;;;;;;3.12;2.50;;;1.40;99.90;;;;;;483377;246;27417;-76
2022/02/25 05:37:48;;;;;;;4.40;2.12;;;1.40;99.90;;;;;;483493;246;27429;-76
2022/02/25 05:39:50;;;;;;;5.32;2.20;;;1.40;99.90;;;;;;483476;246;27440;-76
2022/02/25 05:41:51;;;;;;;2.22;1.90;;;1.40;99.90;;;;;;483465;246;27397;-75
2022/02/25 05:43:52;;;;;;;2.45;2.20;;;1.40;99.90;;;;;;483470;246;27441;-76
2022/02/25 05:45:53;;;;;;;3.05;2.30;;;1.40;99.90;;;;;;483526;246;27458;-75
2022/02/25 05:47:55;;;;;;;1.87;1.73;;;1.40;99.90;;;;;;483499;246;27488;-78
2022/02/25 05:49:56;;;;;;;4.07;2.25;;;1.40;99.90;;;;;;483495;246;27424;-75
2022/02/25 05:51:57;;;;;;;2.45;2.25;;;1.40;99.90;;;;;;483487;246;27398;-76
2022/02/25 05:53:58;;;;;;;3.85;2.10;;;1.40;99.90;;;;;;483452;246;27904;-76
2022/02/25 05:56:00;;;;;;;3.80;2.10;;;1.40;99.90;;;;;;483456;246;27998;-76
2022/02/25 05:58:01;;;;;;;8.05;2.40;;;1.40;99.90;;;;;;483494;246;28022;-75
2022/02/25 06:00:02;;;;;;;3.97;2.08;;;1.40;99.90;;;;;;482653;245;27915;-76
2022/02/25 06:02:03;;;;;;;4.93;2.50;;;1.40;99.90;;;;;;483946;245;27488;-76
2022/02/25 06:04:05;;;;;;;5.28;2.00;;;1.40;99.90;;;;;;483930;245;27533;-75
2022/02/25 06:06:06;;;;;;;4.82;2.67;;;1.50;99.90;;;;;;483921;245;27500;-76
2022/02/25 06:08:07;;;;;;;2.72;2.15;;;1.50;99.90;;;;;;483949;246;27477;-75
2022/02/25 06:10:08;;;;;;;6.50;2.85;;;1.50;99.90;;;;;;483954;246;27521;-75
2022/02/25 06:12:10;;;;;;;3.35;2.28;;;1.50;99.90;;;;;;483904;245;27504;-76
2022/02/25 06:14:11;;;;;;;4.30;2.20;;;1.50;99.90;;;;;;483927;245;27622;-75
2022/02/25 06:16:12;;;;;;;4.80;2.67;;;1.50;99.90;;;;;;483943;246;27593;-76
2022/02/25 06:18:13;;;;;;;4.25;2.28;;;1.50;99.90;;;;;;483968;245;27496;-75
2022/02/25 06:20:15;;;;;;;2.55;2.35;;;1.50;99.90;;;;;;483941;246;27595;-76
2022/02/25 06:22:16;;;;;;;7.93;2.40;;;1.50;99.90;;;;;;483921;246;27951;-77
2022/02/25 06:24:17;;;;;;;6.85;2.60;;;1.50;99.90;;;;;;483910;245;28100;-75
2022/02/25 06:26:18;;;;;;;2.40;2.20;;;1.50;99.90;;;;;;483925;245;28761;-76
2022/02/25 06:28:20;;;;;;;4.25;2.95;;;1.50;99.90;;;;;;483929;245;27946;-76
2022/02/25 06:30:21;;;;;;;2.83;1.95;;;1.50;99.90;;;;;;483929;245;27559;-75
2022/02/25 06:32:22;;;;;;;4.25;2.10;;;1.50;99.90;;;;;;483929;246;27578;-75
2022/02/25 06:34:23;;;;;;;4.85;2.28;;;1.60;99.90;;;;;;483908;245;27516;-74
2022/02/25 06:36:25;;;;;;;2.70;2.05;;;1.50;99.90;;;;;;483950;245;27612;-76
2022/02/25 06:38:26;;;;;;;3.47;2.10;;;1.60;99.90;;;;;;483933;246;27504;-75
2022/02/25 06:40:27;;;;;;;4.78;2.03;;;1.60;99.90;;;;;;483941;246;27524;-76
2022/02/25 06:42:28;;;;;;;5.10;2.80;;;1.60;99.90;;;;;;483914;245;27634;-75
2022/02/25 06:44:30;;;;;;;2.70;2.50;;;1.60;99.90;;;;;;483941;244;27549;-75
2022/02/25 06:46:31;;;;;;;6.40;2.35;;;1.60;99.90;;;;;;483919;246;27493;-76
2022/02/25 06:48:32;;;;;;;2.65;2.42;;;1.60;99.90;;;;;;483911;246;27524;-76
2022/02/25 06:50:33;;;;;;;10.68;2.92;;;1.60;99.90;;;;;;483952;245;28001;-76
2022/02/25 06:52:35;;;;;;;3.35;2.28;;;1.60;99.90;;;;;;483915;245;27963;-75
2022/02/25 06:54:36;;;;;;;7.25;2.53;;;1.70;99.90;;;;;;483914;246;28029;-75
2022/02/25 06:56:37;;;;;;;4.80;2.72;;;1.60;99.90;;;;;;483913;246;27944;-75
2022/02/25 06:58:38;;;;;;;2.62;2.33;;;1.70;99.90;;;;;;483925;246;27538;-76
2022/02/25 07:00:40;;;;;;;2.40;2.00;;;1.70;99.90;;;;;;483942;245;27646;-76
2022/02/25 07:02:41;;;;;;;2.53;2.33;;;1.70;99.90;;;;;;483934;246;27484;-76
2022/02/25 07:04:42;;;;;;;3.37;2.33;;;1.70;99.90;;;;;;483948;246;27520;-76
2022/02/25 07:06:43;;;;;;;6.72;2.72;;;1.70;99.90;;;;;;483933;245;27594;-75
2022/02/25 07:08:45;;;;;;;11.38;3.08;;;1.70;99.90;;;;;;483963;246;27533;-76
2022/02/25 07:10:46;;;;;;;6.60;3.45;;;1.70;99.90;;;;;;483952;246;27635;-76
2022/02/25 07:12:47;;;;;;;4.55;3.10;;;1.70;99.90;;;;;;483966;245;27505;-76
2022/02/25 07:14:48;;;;;;;10.25;2.90;;;1.80;99.90;;;;;;483940;246;27643;-76
2022/02/25 07:16:50;;;;;;;9.57;2.62;;;1.90;99.90;;;;;;483951;246;28947;-76
2022/02/25 07:18:51;;;;;;;5.93;2.75;;;1.90;99.90;;;;;;483940;245;27951;-76
2022/02/25 07:20:52;;;;;;;3.92;2.50;;;1.90;99.90;;;;;;483920;244;28017;-76
2022/02/25 07:22:53;;;;;;;5.32;3.10;;;1.80;99.90;;;;;;483905;246;28121;-75
2022/02/25 07:24:55;;;;;;;3.95;2.55;;;1.70;99.90;;;;;;483904;245;27556;-76
2022/02/25 07:26:56;;;;;;;8.70;2.87;;;1.60;99.90;;;;;;483883;246;27535;-75
2022/02/25 07:28:57;;;;;;;5.10;2.70;;;1.60;99.90;;;;;;483940;246;27500;-76
2022/02/25 07:30:58;;;;;;;3.00;2.42;;;1.60;99.90;;;;;;483946;245;27556;-76
2022/02/25 07:33:00;;;;;;;12.20;2.90;;;1.80;99.90;;;;;;483916;246;27500;-75
2022/02/25 07:35:01;;;;;;;5.05;2.40;;;1.90;99.90;;;;;;483911;246;27540;-75
2022/02/25 07:37:02;;;;;;;5.60;2.40;;;2.00;99.90;;;;;;483915;246;27506;-76
2022/02/25 07:39:03;;;;;;;8.32;3.00;;;2.10;99.90;;;;;;472678;249;27500;-75
2022/02/25 07:41:05;;;;;;;10.77;2.70;;;2.20;99.90;;;;;;472699;251;27545;-76
2022/02/25 07:43:06;;;;;;;10.82;3.22;;;2.10;99.90;;;;;;472669;251;27882;-76
2022/02/25 07:45:07;;;;;;;6.47;2.87;;;2.10;99.90;;;;;;472708;251;28044;-75
2022/02/25 07:47:08;;;;;;;9.18;2.80;;;2.10;99.90;;;;;;472704;251;29765;-76
2022/02/25 07:49:10;;;;;;;11.57;3.17;;;2.10;99.90;;;;;;472669;251;27957;-76
2022/02/25 07:51:11;;;;;;;4.53;2.75;;;2.10;99.90;;;;;;472677;251;27484;-75
2022/02/25 07:53:12;;;;;;;4.10;2.58;;;2.00;99.90;;;;;;472671;251;27427;-75
2022/02/25 07:55:14;;;;;;;5.90;3.45;;;2.00;99.90;;;;;;472658;251;27441;-75
2022/02/25 07:57:15;;;;;;;6.43;3.25;;;2.10;99.90;;;;;;472630;251;27502;-75
2022/02/25 07:59:16;;;;;;;6.18;2.80;;;2.10;99.90;;;;;;472700;251;27425;-75
2022/02/25 08:01:17;;;;;;;5.20;3.10;;;2.00;99.90;;;;;;472686;251;27465;-76
2022/02/25 08:03:18;;;;;;;6.53;3.30;;;2.00;99.90;;;;;;472695;251;27466;-76
2022/02/25 08:05:20;;;;;;;4.45;3.10;;;2.10;99.90;;;;;;472688;251;27473;-76
2022/02/25 08:07:21;;;;;;;4.30;2.65;;;2.20;99.90;;;;;;472694;251;27466;-76
2022/02/25 08:09:22;;;;;;;8.23;2.90;;;2.30;99.90;;;;;;472709;251;27876;-75
2022/02/25 08:11:23;;;;;;;4.57;2.45;;;2.30;99.90;;;;;;472701;250;27944;-75
2022/02/25 08:13:25;;;;;;;3.85;2.40;;;2.40;99.90;;;;;;472673;251;27892;-75
2022/02/25 08:15:26;;;;;;;4.00;2.65;;;2.50;99.90;;;;;;472710;251;29044;-76
2022/02/25 08:17:27;;;;;;;5.68;2.97;;;2.40;99.90;;;;;;472707;251;27568;-75
2022/02/25 08:19:28;;;;;;;8.73;3.12;;;2.40;99.90;;;;;;472705;251;27452;-76
2022/02/25 08:21:30;;;;;;;5.53;2.97;;;2.40;99.90;;;;;;472713;251;27449;-79
2022/02/25 08:23:31;;;;;;;8.70;3.25;;;2.40;99.90;;;;;;472701;251;27489;-75
2022/02/25 08:25:33;;;;;;;4.78;3.08;;;2.40;99.90;;;;;;472686;251;27457;-75
2022/02/25 08:27:33;;;;;;;5.95;3.62;;;2.50;99.90;;;;;;472612;251;27821;-75
2022/02/25 08:29:35;;;;;;;5.53;3.47;;;2.50;99.90;;;;;;472714;251;27437;-76
2022/02/25 08:31:36;;;;;;;4.78;2.85;;;2.60;99.90;;;;;;472709;251;27457;-76
2022/02/25 08:33:37;;;;;;;4.55;2.97;;;2.60;99.90;;;;;;472698;251;27457;-75
2022/02/25 08:35:38;;;;;;;10.73;3.25;;;2.60;99.90;;;;;;472709;251;27473;-75
2022/02/25 08:37:40;;;;;;;5.60;3.12;;;2.60;99.90;;;;;;472711;251;28059;-76
2022/02/25 08:39:41;;;;;;;5.18;2.70;;;2.60;99.90;;;;;;472717;251;27919;-76
2022/02/25 08:41:42;;;;;;;6.43;3.20;;;2.70;99.90;;;;;;472725;251;27927;-76
2022/02/25 08:43:46;;;;;;;9.18;3.53;;;2.80;99.90;;;;;;472721;251;27875;-75
2022/02/25 08:45:45;;;;;;;8.65;3.22;;;2.80;99.90;;;;;;472450;250;27488;-75
2022/02/25 08:47:46;;;;;;;3.55;2.72;;;2.90;99.90;;;;;;472721;251;27544;-76
2022/02/25 08:49:47;;;;;;;4.40;3.10;;;3.10;99.90;;;;;;472715;250;27430;-76
2022/02/25 08:51:49;;;;;;;4.55;2.70;;;3.10;99.90;;;;;;472704;251;27501;-76
2022/02/25 08:53:50;;;;;;;4.07;3.35;;;3.10;99.90;;;;;;472639;251;27504;-75
2022/02/25 08:55:51;;;;;;;7.72;3.60;;;3.30;99.90;;;;;;472677;251;27461;-76
2022/02/25 08:57:52;;;;;;;6.15;3.00;;;3.20;99.90;;;;;;472671;251;27835;-75
2022/02/25 08:59:53;;;;;;;7.00;3.35;;;3.10;99.90;;;;;;472697;247;27418;-76
2022/02/25 09:01:55;;;;;;;6.80;3.08;;;3.20;99.90;;;;;;472703;251;27458;-75
2022/02/25 09:04:00;;;;;;;4.65;3.17;;;3.10;99.90;;;;;;472653;251;27421;-76
2022/02/25 09:05:57;;;;;;;10.13;3.00;;;3.10;99.90;;;;;;472307;251;27920;-75
2022/02/25 09:07:58;;;;;;;5.62;3.10;;;3.10;99.90;;;;;;472647;251;28035;-75
2022/02/25 09:10:00;;;;;;;7.75;2.95;;;3.10;99.90;;;;;;472643;251;27883;-75
2022/02/25 09:12:01;;;;;;;7.07;3.25;;;3.10;99.90;;;;;;472634;246;27533;-76
2022/02/25 09:14:02;;;;;;;7.93;3.42;;;3.30;99.90;;;;;;472645;251;27525;-75
2022/02/25 09:16:04;;;;;;;4.55;3.40;;;3.40;99.90;;;;;;472634;251;27452;-75
2022/02/25 09:18:05;;;;;;;8.38;3.10;;;3.40;99.90;;;;;;472648;246;27445;-75
2022/02/25 09:20:07;;;;;;;9.23;3.72;;;3.50;99.90;;;;;;472678;251;27405;-75
2022/02/25 09:22:07;;;;;;;9.80;3.20;;;3.50;99.90;;;;;;472655;251;27533;-75
2022/02/25 09:24:08;;;;;;;8.55;3.22;;;3.60;99.90;;;;;;472651;251;27465;-75
2022/02/25 09:26:10;;;;;;;6.55;2.80;;;3.60;99.90;;;;;;472658;249;27425;-75
2022/02/25 09:28:12;;;;;;;6.00;3.30;;;3.60;99.90;;;;;;472712;251;27454;-75
2022/02/25 09:30:13;;;;;;;8.13;3.00;;;3.60;99.90;;;;;;472614;249;27421;-76
2022/02/25 09:32:14;;;;;;;7.15;3.17;;;3.70;99.90;;;;;;472594;251;27952;-77
2022/02/25 09:34:15;;;;;;;7.47;3.30;;;3.70;99.90;;;;;;472688;251;27965;-76
2022/02/25 09:36:16;;;;;;;11.07;3.20;;;3.90;99.90;;;;;;472708;251;28115;-76
2022/02/25 09:38:17;;;;;;;6.60;3.10;;;4.00;99.90;;;;;;472680;246;27454;-76
2022/02/25 09:40:21;;;;;;;5.60;3.00;;;4.20;99.90;;;;;;472691;251;27561;-76
2022/02/25 09:42:22;;;;;;;9.60;2.90;;;4.30;99.90;;;;;;472712;251;27506;-76
2022/02/25 09:44:24;;;;;;;13.40;2.90;;;4.10;99.90;;;;;;472696;251;27474;-76
2022/02/25 09:46:25;;;;;;;9.65;3.30;;;4.00;99.90;;;;;;472705;250;27413;-75
2022/02/25 09:48:26;;;;;;;3.58;2.90;;;3.90;99.90;;;;;;472698;251;27549;-76
2022/02/25 09:50:28;;;;;;;3.20;2.42;;;4.00;99.90;;;;;;472728;251;28016;-75
2022/02/25 09:52:29;;;;;;;5.65;2.85;;;4.20;99.90;;;;;;472704;251;28115;-75
2022/02/25 09:54:30;;;;;;;5.78;2.80;;;4.30;99.90;;;;;;472696;251;27944;-76
2022/02/25 09:56:33;;;;;;;5.60;2.45;;;4.30;99.90;;;;;;472690;251;27421;-75
2022/02/25 09:58:32;;;;;;;6.50;2.75;;;4.40;99.90;;;;;;472577;250;27460;-76
2022/02/25 10:00:34;;;;;;;5.95;2.80;;;4.30;99.90;;;;;;472700;251;27542;-76
2022/02/25 10:02:35;;;;;;;8.20;2.50;;;4.20;99.90;;;;;;472711;251;27453;-76
2022/02/25 10:04:36;;;;;;;10.35;3.37;;;4.00;99.90;;;;;;472693;251;27462;-76
2022/02/25 10:06:37;;;;;;;12.23;4.50;;;4.00;99.90;;;;;;472699;251;27421;-76
2022/02/25 10:08:39;;;;;;;9.90;4.40;;;4.10;99.90;;;;;;472680;249;27457;-75
2022/02/25 10:10:40;;;;;;;5.65;3.60;;;4.20;99.90;;;;;;472736;251;27932;-77
2022/02/25 10:12:41;;;;;;;6.47;3.00;;;4.00;99.90;;;;;;472706;251;27895;-75
2022/02/25 10:14:42;;;;;;;6.55;3.90;;;3.90;99.90;;;;;;472713;251;27453;-75
2022/02/25 10:16:44;;;;;;;4.05;2.80;;;3.90;99.90;;;;;;472715;251;27509;-75
2022/02/25 10:18:45;;;;;;;10.68;3.62;;;3.80;99.90;;;;;;472711;251;27545;-76
2022/02/25 10:20:46;;;;;;;11.00;3.60;;;3.80;99.90;;;;;;472726;251;27533;-75
2022/02/25 10:22:47;;;;;;;6.12;2.72;;;3.80;99.90;;;;;;472709;250;27424;-75
2022/02/25 10:24:49;;;;;;;5.03;3.37;;;3.80;99.90;;;;;;472725;251;27457;-75
2022/02/25 10:26:50;;;;;;;6.97;3.15;;;3.80;99.90;;;;;;472717;251;27490;-75
2022/02/25 10:28:51;;;;;;;7.20;2.75;;;3.70;99.90;;;;;;472700;251;27453;-75
2022/02/25 10:30:52;;;;;;;8.10;2.70;;;3.80;99.90;;;;;;472697;251;27472;-76
2022/02/25 10:32:54;;;;;;;7.28;2.65;;;3.80;99.90;;;;;;472676;251;28142;-76
2022/02/25 10:34:55;;;;;;;5.60;3.25;;;3.90;99.90;;;;;;472662;251;28741;-76
2022/02/25 10:36:57;;;;;;;8.48;2.75;;;3.90;99.90;;;;;;472679;251;28005;-75
2022/02/25 10:38:57;;;;;;;5.35;2.53;;;4.10;99.90;;;;;;472647;250;27884;-76
2022/02/25 10:40:59;;;;;;;13.82;3.30;;;4.10;99.90;;;;;;472729;251;27469;-76
2022/02/25 10:43:00;;;;;;;4.75;2.90;;;4.30;99.90;;;;;;472711;250;27486;-76
2022/02/25 10:45:05;;;;;;;7.62;3.00;;;4.30;99.90;;;;;;472690;251;27445;-76